Time;durP1;ratioP1;P1;durP2;ratioP2;P2;SDS_P1;SDS_P2;PMS_P1;PMS_P2;Temp;Humidity;BMP_temperature;BMP_pressure;BME280_temperature;BME280_humidity;BME280_pressure;Samples;Min_cycle;Max_cycle;Signal;HPM_P1;HPM_P2
2022/10/05 00:01:19;;;;;;;2.60;2.00;;;;;;;9.00;83.74;99271.84;104665;1272;76692;-24
2022/10/05 00:03:46;;;;;;;4.50;2.40;;;;;;;9.45;81.82;99276.55;104670;1274;75196;-24
2022/10/05 00:06:14;;;;;;;3.00;1.80;;;;;;;9.46;81.56;99279.80;104678;1274;63089;-24
2022/10/05 00:08:41;;;;;;;4.20;2.80;;;;;;;9.29;82.03;99279.27;104626;1274;63454;-24
2022/10/05 00:11:08;;;;;;;4.10;2.40;;;;;;;9.01;83.19;99278.65;104845;1271;76658;-24
2022/10/05 00:13:35;;;;;;;3.50;2.10;;;;;;;8.97;83.90;99283.77;104702;1274;74864;-24
2022/10/05 00:16:15;;;;;;;3.60;2.30;;;;;;;9.41;82.13;99284.81;104675;1274;74325;-24
2022/10/05 00:18:50;;;;;;;3.60;2.10;;;;;;;9.56;81.20;99290.80;104767;1271;63058;-25
2022/10/05 00:21:21;;;;;;;4.60;2.50;;;;;;;9.35;81.72;99291.00;104652;1274;61017;-24
2022/10/05 00:23:49;;;;;;;2.80;2.00;;;;;;;9.20;82.53;99297.25;104617;1274;76367;-24
2022/10/05 00:26:20;;;;;;;4.70;2.20;;;;;;;8.98;83.68;99307.25;104629;1274;77099;-24
2022/10/05 00:28:47;;;;;;;3.30;2.30;;;;;;;9.24;83.16;99307.02;104615;1274;75313;-24
2022/10/05 00:31:22;;;;;;;2.90;2.30;;;;;;;9.52;82.01;99309.16;105057;1272;62775;-24
2022/10/05 00:33:50;;;;;;;3.20;2.10;;;;;;;9.37;82.15;99307.45;105087;1271;61403;-24
2022/10/05 00:36:17;;;;;;;7.40;2.70;;;;;;;9.17;83.24;99312.37;104727;1274;76761;-24
2022/10/05 00:38:44;;;;;;;3.80;2.30;;;;;;;9.00;84.17;99316.82;104867;1271;77011;-24
2022/10/05 00:41:17;;;;;;;7.30;2.00;;;;;;;9.33;83.06;99316.39;104718;1274;74213;-24
2022/10/05 00:44:02;;;;;;;4.80;2.60;;;;;;;9.61;81.67;99322.34;104609;1274;62936;-25
2022/10/05 00:46:56;;;;;;;6.90;2.20;;;;;;;9.51;81.96;99316.35;104769;1274;63033;-24
2022/10/05 00:49:45;;;;;;;4.50;2.50;;;;;;;9.35;82.17;99312.64;104711;1274;75524;-24
2022/10/05 00:52:27;;;;;;;3.10;1.90;;;;;;;9.19;83.35;99314.13;104747;1272;76071;-24
2022/10/05 00:55:18;;;;;;;5.70;2.50;;;;;;;9.40;82.63;99312.23;104888;1274;74397;-24
2022/10/05 00:57:58;;;;;;;4.10;2.40;;;;;;;9.72;80.86;99312.39;104755;1272;62014;-24
2022/10/05 01:00:25;;;;;;;6.30;2.50;;;;;;;9.58;81.54;99314.92;104879;1272;61099;-25
2022/10/05 01:03:20;;;;;;;3.90;2.50;;;;;;;9.42;82.02;99318.86;104593;1271;76523;-24
2022/10/05 01:05:57;;;;;;;5.10;1.90;;;;;;;9.23;82.88;99319.23;104366;1274;75998;-24
2022/10/05 01:08:49;;;;;;;3.90;2.20;;;;;;;9.43;82.73;99317.08;104667;1274;75496;-24
2022/10/05 01:11:27;;;;;;;4.50;2.40;;;;;;;9.80;80.95;99328.98;104695;1271;62077;-24
2022/10/05 01:14:21;;;;;;;7.10;2.60;;;;;;;9.78;80.81;99330.63;104921;1273;62985;-24
2022/10/05 01:16:50;;;;;;;5.50;2.70;;;;;;;9.51;81.69;99330.92;105103;1271;76719;-24
2022/10/05 01:19:43;;;;;;;4.60;2.40;;;;;;;9.28;82.87;99339.83;104873;1272;76009;-24
2022/10/05 01:22:51;;;;;;;3.90;2.10;;;;;;;9.41;82.84;99346.54;104883;1271;75968;-24
2022/10/05 01:25:46;;;;;;;3.20;2.30;;;;;;;9.77;81.09;99349.48;104305;1274;62042;-25
2022/10/05 01:28:17;;;;;;;4.00;2.20;;;;;;;9.83;80.59;99354.04;104668;1271;61809;-24
2022/10/05 01:31:07;;;;;;;3.30;2.30;;;;;;;9.62;81.28;99353.84;104585;1271;76814;-24
2022/10/05 01:33:47;;;;;;;3.00;1.80;;;;;;;9.39;82.20;99356.70;104663;1272;75840;-24
2022/10/05 01:36:27;;;;;;;2.80;1.70;;;;;;;9.57;82.08;99354.05;104646;1272;75262;-24
2022/10/05 01:39:16;;;;;;;5.10;2.00;;;;;;;10.01;80.09;99354.48;104615;1271;61759;-24
2022/10/05 01:42:16;;;;;;;6.00;2.30;;;;;;;10.05;79.73;99352.83;104587;1272;63030;-24
2022/10/05 01:44:50;;;;;;;5.20;2.30;;;;;;;9.88;80.33;99355.28;104715;1271;75658;-24
2022/10/05 01:47:44;;;;;;;2.90;1.90;;;;;;;9.63;81.39;99360.36;103814;1274;1196088;-24
2022/10/05 01:50:27;;;;;;;3.90;1.90;;;;;;;9.45;82.38;99370.63;104527;1274;74149;-24
2022/10/05 01:53:00;;;;;;;;;;;;;;;10.01;80.44;99376.11;104679;1274;62123;-24
2022/10/05 01:55:30;;;;;;;4.10;2.20;;;;;;;10.17;79.41;99380.34;104754;1271;61762;-24
2022/10/05 01:58:02;;;;;;;5.60;2.00;;;;;;;10.01;79.76;99379.98;104809;1271;76279;-24
2022/10/05 02:00:32;;;;;;;3.20;2.40;;;;;;;9.90;80.13;99380.77;104734;1271;75968;-24
2022/10/05 02:03:03;;;;;;;4.60;1.50;;;;;;;9.73;80.99;99382.91;104598;1274;74277;-24
2022/10/05 02:05:40;;;;;;;4.80;2.10;;;;;;;9.95;80.61;99382.20;104642;1271;62797;-24
2022/10/05 02:08:36;;;;;;;2.80;1.90;;;;;;;10.28;78.46;99381.30;104631;1274;61961;-24
2022/10/05 02:11:07;;;;;;;3.90;2.30;;;;;;;10.15;79.16;99378.80;104802;1274;76911;-25
2022/10/05 02:13:57;;;;;;;4.40;2.70;;;;;;;9.99;79.53;99378.40;104661;1275;76208;-25
2022/10/05 02:16:32;;;;;;;6.30;2.50;;;;;;;9.74;80.73;99380.02;104832;1271;74077;-24
2022/10/05 02:19:13;;;;;;;3.20;1.90;;;;;;;9.61;81.53;99383.55;104678;1272;64479;-24
2022/10/05 02:21:43;;;;;;;4.80;1.90;;;;;;;10.09;79.72;99381.65;104662;1274;62732;-25
2022/10/05 02:24:17;;;;;;;4.10;2.20;;;;;;;10.28;78.55;99381.08;104690;1274;75154;-24
2022/10/05 02:26:44;;;;;;;4.40;2.40;;;;;;;10.17;78.70;99384.35;104649;1274;74732;-25
2022/10/05 02:29:12;;;;;;;2.90;2.00;;;;;;;9.90;79.94;99383.36;104604;1272;75456;-25
2022/10/05 02:31:44;;;;;;;2.80;1.70;;;;;;;9.73;80.64;99390.15;104756;1272;61982;-24
2022/10/05 02:34:28;;;;;;;6.40;2.10;;;;;;;9.74;81.11;99397.04;104639;1272;61843;-25
2022/10/05 02:37:33;;;;;;;3.90;2.00;;;;;;;10.20;79.17;99401.67;105136;1271;76663;-24
2022/10/05 02:40:13;;;;;;;3.30;1.80;;;;;;;10.27;78.50;99400.05;104909;1271;75894;-25
2022/10/05 02:42:59;;;;;;;3.70;2.50;;;;;;;10.04;79.34;99400.21;104618;1274;75191;-25
2022/10/05 02:45:29;;;;;;;5.40;1.90;;;;;;;9.78;80.41;99398.77;104674;1274;62909;-24
2022/10/05 02:48:10;;;;;;;3.60;1.70;;;;;;;9.66;80.93;99403.52;104797;1271;61000;-24
2022/10/05 02:51:00;;;;;;;3.70;2.00;;;;;;;10.09;79.77;99404.68;104659;1271;75575;-24
2022/10/05 02:53:35;;;;;;;5.70;2.20;;;;;;;10.46;77.92;99405.16;104621;1275;76812;-25
2022/10/05 02:56:27;;;;;;;6.70;2.10;;;;;;;10.29;78.11;99404.66;104640;1271;74387;-24
2022/10/05 02:59:20;;;;;;;4.10;2.10;;;;;;;10.04;79.11;99408.23;104585;1274;63041;-24
2022/10/05 03:01:49;;;;;;;2.90;1.70;;;;;;;9.79;80.09;99416.42;104574;1274;61063;-25
2022/10/05 03:04:33;;;;;;;4.50;1.50;;;;;;;9.61;80.95;99410.63;104716;1272;75718;-24
2022/10/05 03:07:16;;;;;;;2.40;1.60;;;;;;;10.00;79.80;99413.52;104778;1272;76948;-24
2022/10/05 03:12:19;;;;;;;5.70;2.10;;;;;;;10.21;78.20;99412.84;101925;1307;599580;-23
2022/10/05 03:14:55;;;;;;;4.10;1.80;;;;;;;9.94;79.09;99416.91;103843;1286;63084;-23
2022/10/05 03:17:29;;;;;;;2.80;2.10;;;;;;;9.68;80.15;99419.80;103932;1284;61975;-23
2022/10/05 03:20:24;;;;;;;2.70;1.80;;;;;;;9.54;80.95;99425.34;104002;1283;74124;-24
2022/10/05 03:22:57;;;;;;;5.30;2.10;;;;;;;9.98;79.72;99427.16;104303;1283;74746;-25
2022/10/05 03:25:46;;;;;;;3.80;2.20;;;;;;;10.15;78.75;99427.89;103238;1280;1196978;-23
2022/10/05 03:28:30;;;;;;;3.60;2.40;;;;;;;10.03;79.07;99433.41;104553;1280;61737;-24
2022/10/05 03:31:02;;;;;;;2.60;2.20;;;;;;;9.76;80.11;99433.09;104452;1280;62071;-23
2022/10/05 03:33:36;;;;;;;3.30;2.20;;;;;;;9.52;81.51;99434.15;103957;1281;73727;-24
2022/10/05 03:36:17;;;;;;;;;;;;;;;9.60;81.60;99430.63;104390;1279;77076;-23
2022/10/05 03:39:08;;;;;;;4.80;1.90;;;;;;;9.99;80.03;99428.00;104320;1280;75293;-23
2022/10/05 03:41:58;;;;;;;2.50;2.20;;;;;;;9.89;80.10;99434.63;104476;1280;63090;-23
2022/10/05 03:45:07;;;;;;;5.10;2.30;;;;;;;9.62;81.17;99434.94;104559;1279;63171;-23
2022/10/05 03:47:44;;;;;;;3.60;1.50;;;;;;;9.35;82.28;99444.10;104008;1279;75859;-23
2022/10/05 03:50:50;;;;;;;5.00;2.10;;;;;;;9.45;82.44;99439.75;104274;1280;77103;-23
2022/10/05 03:53:19;;;;;;;3.50;2.00;;;;;;;9.81;80.97;99440.55;104089;1279;75293;-23
2022/10/05 03:55:47;;;;;;;4.80;2.60;;;;;;;9.79;80.87;99432.74;104312;1279;61724;-23
2022/10/05 03:58:30;;;;;;;4.20;2.60;;;;;;;9.56;81.22;99431.25;104229;1280;61930;-23
2022/10/05 04:01:01;;;;;;;4.90;3.00;;;;;;;9.26;82.43;99432.44;104460;1279;75761;-23
2022/10/05 04:03:39;;;;;;;7.10;2.60;;;;;;;9.23;82.97;99433.38;104406;1279;75729;-23
2022/10/05 04:06:12;;;;;;;3.70;2.60;;;;;;;9.62;81.44;99434.30;104294;1279;75560;-26
2022/10/05 04:08:43;;;;;;;5.20;3.10;;;;;;;9.59;81.04;99442.09;104151;1279;62079;-25
2022/10/05 04:11:20;;;;;;;4.90;3.30;;;;;;;9.45;81.47;99445.00;104409;1279;61671;-25
2022/10/05 04:14:00;;;;;;;3.90;2.90;;;;;;;9.26;82.22;99448.91;104277;1279;75715;-25
2022/10/05 04:16:33;;;;;;;6.00;2.90;;;;;;;9.15;82.88;99454.19;104293;1279;75028;-24
2022/10/05 04:19:16;;;;;;;;;;;;;;;9.59;81.65;99460.67;104372;1281;75400;-25
2022/10/05 04:21:47;;;;;;;9.80;2.90;;;;;;;9.72;80.32;99464.11;104174;1280;62111;-25
2022/10/05 04:24:33;;;;;;;6.30;3.10;;;;;;;9.57;80.81;99466.52;103827;1282;62307;-25
2022/10/05 04:27:13;;;;;;;6.60;3.60;;;;;;;9.34;81.78;99478.48;103871;1283;75939;-25
2022/10/05 04:29:52;;;;;;;2.80;2.30;;;;;;;9.13;83.18;99476.30;103796;1280;77124;-25
2022/10/05 04:32:41;;;;;;;5.20;3.00;;;;;;;9.56;81.51;99478.55;104211;1279;75529;-25
2022/10/05 04:35:14;;;;;;;7.80;3.60;;;;;;;9.85;79.94;99481.05;104269;1281;61874;-25
2022/10/05 04:37:57;;;;;;;6.80;3.50;;;;;;;9.63;80.33;99483.23;104223;1280;63032;-25
2022/10/05 04:40:36;;;;;;;4.40;3.30;;;;;;;9.35;81.42;99493.16;104240;1279;75632;-25
2022/10/05 04:43:28;;;;;;;8.30;2.60;;;;;;;9.14;82.44;99498.37;104392;1280;76981;-25
2022/10/05 04:46:24;;;;;;;3.70;2.70;;;;;;;9.34;81.76;99510.54;104446;1280;75512;-25
2022/10/05 04:49:17;;;;;;;7.40;3.40;;;;;;;9.66;80.49;99516.36;104100;1280;63069;-25
2022/10/05 04:52:00;;;;;;;;;;;;;;;9.49;80.55;99516.14;104279;1280;63108;-25
2022/10/05 04:55:03;;;;;;;5.10;3.30;;;;;;;9.18;81.81;99518.27;104424;1279;75496;-25
2022/10/05 04:58:15;;;;;;;6.00;2.30;;;;;;;9.07;82.78;99520.70;104042;1280;77377;-25
2022/10/05 05:01:00;;;;;;;3.90;2.50;;;;;;;9.51;80.97;99531.38;104271;1280;75578;-25
2022/10/05 05:03:59;;;;;;;4.70;3.10;;;;;;;9.42;80.55;99523.20;104173;1280;61176;-25
2022/10/05 05:06:36;;;;;;;5.80;3.20;;;;;;;9.19;81.10;99522.86;104420;1282;61916;-24
2022/10/05 05:09:34;;;;;;;6.00;2.20;;;;;;;9.02;82.11;99531.45;104268;1280;75725;-25
2022/10/05 05:12:08;;;;;;;5.40;2.50;;;;;;;9.07;82.22;99520.72;104432;1280;76266;-25
2022/10/05 05:14:57;;;;;;;6.20;2.90;;;;;;;9.23;80.80;99523.59;104448;1279;74041;-25
2022/10/05 05:17:46;;;;;;;6.20;3.50;;;;;;;9.24;80.64;99526.12;104374;1279;61240;-25
2022/10/05 05:20:26;;;;;;;6.00;3.80;;;;;;;8.93;82.07;99534.46;104232;1280;61973;-25
2022/10/05 05:23:06;;;;;;;7.00;2.70;;;;;;;8.84;82.60;99535.01;104398;1280;74831;-25
2022/10/05 05:25:43;;;;;;;4.10;3.10;;;;;;;8.95;82.44;99539.70;104414;1280;76062;-25
2022/10/05 05:28:32;;;;;;;7.00;3.00;;;;;;;9.20;81.12;99546.02;104252;1279;75589;-25
2022/10/05 05:31:09;;;;;;;5.40;3.30;;;;;;;9.12;81.13;99558.83;104256;1281;62016;-25
2022/10/05 05:34:02;;;;;;;7.70;3.40;;;;;;;8.96;81.93;99556.56;104188;1280;62857;-25
2022/10/05 05:36:47;;;;;;;5.40;2.70;;;;;;;8.74;82.66;99555.29;103818;1281;74767;-24
2022/10/05 05:39:28;;;;;;;4.80;2.70;;;;;;;8.91;82.07;99561.90;103888;1281;76028;-24
2022/10/05 05:41:59;;;;;;;4.80;2.70;;;;;;;9.02;81.34;99570.08;104099;1279;74396;-24
2022/10/05 05:44:29;;;;;;;8.00;2.60;;;;;;;8.90;81.88;99575.36;104243;1276;63110;-24
2022/10/05 05:47:03;;;;;;;4.70;3.00;;;;;;;8.79;82.10;99577.43;104384;1276;61960;-24
2022/10/05 05:49:57;;;;;;;3.90;2.30;;;;;;;8.64;82.76;99578.42;104490;1276;74706;-24
2022/10/05 05:52:44;;;;;;;4.30;3.10;;;;;;;8.84;82.73;99577.96;104584;1276;77118;-24
2022/10/05 05:55:33;;;;;;;4.30;2.40;;;;;;;9.12;80.72;99567.30;104553;1276;74990;-24
2022/10/05 05:58:15;;;;;;;7.80;3.10;;;;;;;9.03;81.03;99574.15;104496;1276;61868;-24
2022/10/05 06:01:07;;;;;;;8.20;2.70;;;;;;;8.99;81.66;99573.89;104563;1276;63050;-23
2022/10/05 06:03:58;;;;;;;5.30;2.90;;;;;;;8.99;81.67;99572.85;104545;1276;74742;-24
2022/10/05 06:06:29;;;;;;;3.30;2.00;;;;;;;8.94;82.31;99575.09;104490;1276;75763;-23
2022/10/05 06:08:59;;;;;;;5.00;2.60;;;;;;;9.33;80.58;99575.63;104572;1276;75475;-23
2022/10/05 06:12:22;;;;;;;4.20;2.70;;;;;;;9.48;79.34;99577.91;104675;1273;62790;-23
2022/10/05 06:14:52;;;;;;;3.80;2.00;;;;;;;9.30;79.88;99578.10;104850;1273;63041;-23
2022/10/05 06:17:38;;;;;;;3.60;2.60;;;;;;;9.10;80.67;99579.92;104857;1273;74838;-24
2022/10/05 06:20:12;;;;;;;6.30;2.70;;;;;;;9.06;81.63;99595.23;104739;1274;76079;-24
2022/10/05 06:22:41;;;;;;;4.70;2.60;;;;;;;9.34;80.01;99597.86;104718;1273;75438;-24
2022/10/05 06:25:15;;;;;;;3.30;2.10;;;;;;;9.72;78.91;99584.26;104756;1273;61937;-24
2022/10/05 06:28:08;;;;;;;5.30;2.40;;;;;;;9.66;78.81;99590.00;104794;1273;60969;-24
2022/10/05 06:31:31;;;;;;;4.80;2.40;;;;;;;9.43;79.97;99599.36;104730;1273;75992;-24
2022/10/05 06:34:18;;;;;;;2.60;2.00;;;;;;;9.30;80.52;99604.05;104400;1281;75807;-24
2022/10/05 06:36:50;;;;;;;4.50;2.30;;;;;;;9.64;79.60;99608.02;104392;1281;75240;-24
2022/10/05 06:39:42;;;;;;;3.10;2.40;;;;;;;9.91;77.70;99609.09;104057;1281;61369;-24
2022/10/05 06:42:22;;;;;;;3.20;1.90;;;;;;;10.06;76.97;99609.63;104459;1281;61859;-24
2022/10/05 06:45:52;;;;;;;4.80;2.60;;;;;;;9.89;77.25;99616.23;104338;1282;74695;-24
2022/10/05 06:48:52;;;;;;;4.30;2.20;;;;;;;9.58;79.30;99626.63;104374;1281;75597;-24
2022/10/05 06:52:26;;;;;;;4.50;2.30;;;;;;;9.79;78.76;99632.11;104036;1282;75464;-24
2022/10/05 06:55:17;;;;;;;4.00;2.30;;;;;;;10.55;75.58;99621.14;104030;1282;63048;-24
2022/10/05 06:58:13;;;;;;;5.40;2.10;;;;;;;10.74;75.13;99623.91;104412;1281;61153;-24
2022/10/05 07:01:03;;;;;;;4.40;2.10;;;;;;;10.86;75.30;99629.85;104177;1281;75861;-26
2022/10/05 07:03:42;;;;;;;3.70;2.10;;;;;;;10.70;74.71;99624.38;103905;1282;76725;-24
2022/10/05 07:06:33;;;;;;;4.90;2.00;;;;;;;10.56;75.27;99621.77;103788;1281;75455;-24
2022/10/05 07:09:07;;;;;;;2.30;1.40;;;;;;;10.54;75.59;99621.55;104357;1274;63673;-24
2022/10/05 07:11:40;;;;;;;2.30;1.50;;;;;;;11.11;73.23;99624.02;104587;1273;62932;-24
2022/10/05 07:14:30;;;;;;;3.60;1.70;;;;;;;11.55;71.29;99618.44;104719;1273;75405;-24
2022/10/05 07:17:07;;;;;;;2.80;1.60;;;;;;;11.39;71.50;99624.15;104998;1273;76854;-24
2022/10/05 07:20:21;;;;;;;4.00;1.90;;;;;;;11.47;72.32;99631.75;104900;1273;75704;-25
2022/10/05 07:23:13;;;;;;;5.60;1.60;;;;;;;11.40;71.90;99640.09;104520;1273;62037;-24
2022/10/05 07:25:45;;;;;;;4.70;1.50;;;;;;;11.46;72.07;99634.11;104650;1273;63007;-24
2022/10/05 07:28:40;;;;;;;3.30;1.40;;;;;;;11.45;72.18;99629.52;104393;1273;75691;-24
2022/10/05 07:31:23;;;;;;;2.60;1.00;;;;;;;11.21;72.13;99628.63;104899;1273;76809;-24
2022/10/05 07:34:08;;;;;;;2.40;1.00;;;;;;;11.62;70.33;99626.93;104598;1273;75426;-24
2022/10/05 07:39:54;;;;;;;1.70;1.20;;;;;;;12.33;67.83;99628.00;104763;1273;62878;-24
2022/10/05 07:42:36;;;;;;;2.50;1.30;;;;;;;12.55;68.58;99644.66;104627;1273;75796;-25
2022/10/05 07:45:23;;;;;;;3.00;1.20;;;;;;;12.37;68.25;99648.68;104873;1273;76853;-25
2022/10/05 07:47:53;;;;;;;3.10;1.40;;;;;;;12.27;68.88;99653.16;104708;1276;75426;-25
2022/10/05 07:50:28;;;;;;;1.80;1.10;;;;;;;12.19;69.12;99650.42;104748;1276;63010;-24
2022/10/05 07:53:05;;;;;;;4.00;1.20;;;;;;;12.18;69.45;99644.83;104670;1274;62145;-25
2022/10/05 07:55:35;;;;;;;2.50;1.30;;;;;;;12.03;69.34;99646.99;104358;1273;76162;-24
2022/10/05 07:58:22;;;;;;;3.40;1.60;;;;;;;12.11;69.26;99636.86;104491;1273;77058;-24
2022/10/05 08:01:15;;;;;;;3.90;1.10;;;;;;;12.06;67.60;99630.95;104764;1275;75120;-24
2022/10/05 08:04:10;;;;;;;4.00;1.10;;;;;;;12.03;67.62;99629.42;104987;1273;62010;-24
2022/10/05 08:06:49;;;;;;;6.20;0.90;;;;;;;11.95;67.64;99621.44;104685;1273;61691;-24
2022/10/05 08:09:32;;;;;;;3.00;1.10;;;;;;;11.84;66.59;99617.85;104592;1274;74439;-24
2022/10/05 08:12:22;;;;;;;2.80;1.10;;;;;;;11.89;66.98;99620.60;104580;1273;77235;-25
2022/10/05 08:15:02;;;;;;;2.80;1.20;;;;;;;11.67;67.42;99625.92;104675;1273;74054;-24
2022/10/05 08:17:44;;;;;;;1.70;0.80;;;;;;;11.69;68.15;99629.94;104611;1273;63064;-24
2022/10/05 08:20:36;;;;;;;2.30;1.00;;;;;;;11.81;68.02;99628.30;104600;1273;61821;-25
2022/10/05 08:23:09;;;;;;;2.30;0.90;;;;;;;11.89;67.82;99625.81;104533;1273;76803;-24
2022/10/05 08:26:04;;;;;;;2.30;1.30;;;;;;;11.87;68.23;99631.49;104590;1273;76604;-24
2022/10/05 08:28:37;;;;;;;2.40;0.80;;;;;;;12.03;65.93;99629.23;104679;1273;75302;-24
2022/10/05 08:31:04;;;;;;;1.50;0.90;;;;;;;12.10;66.46;99636.40;104728;1274;63099;-24
2022/10/05 08:33:58;;;;;;;1.80;0.80;;;;;;;12.17;65.85;99646.63;105001;1273;63029;-24
2022/10/05 08:36:38;;;;;;;0.90;0.60;;;;;;;12.30;64.47;99654.48;104687;1273;75588;-22
2022/10/05 08:39:11;;;;;;;2.60;1.00;;;;;;;12.44;64.98;99659.31;104638;1273;77031;-23
2022/10/05 08:41:53;;;;;;;2.20;1.20;;;;;;;12.64;64.38;99652.83;104657;1273;74447;-23
2022/10/05 08:45:02;;;;;;;5.00;1.00;;;;;;;12.64;64.58;99658.73;104640;1273;63164;-23
2022/10/05 08:47:51;;;;;;;1.50;0.80;;;;;;;12.75;64.25;99659.46;104665;1274;63319;-23
2022/10/05 08:50:33;;;;;;;3.00;1.20;;;;;;;12.64;64.00;99664.34;104590;1274;75327;-23
2022/10/05 08:53:11;;;;;;;3.50;0.90;;;;;;;12.62;63.98;99675.08;104747;1273;75976;-23
2022/10/05 08:56:13;;;;;;;3.50;1.00;;;;;;;12.83;65.14;99670.67;104648;1273;75080;-23
2022/10/05 08:59:07;;;;;;;2.30;1.00;;;;;;;13.38;62.84;99659.89;104587;1275;61986;-23
2022/10/05 09:01:59;;;;;;;2.90;0.90;;;;;;;13.69;63.86;99668.52;104680;1274;63082;-24
2022/10/05 09:04:49;;;;;;;2.00;0.90;;;;;;;13.68;62.37;99659.92;104702;1275;75399;-23
2022/10/05 09:07:37;;;;;;;1.50;0.90;;;;;;;13.27;62.63;99664.45;104726;1273;74953;-23
2022/10/05 09:10:40;;;;;;;1.60;0.70;;;;;;;13.45;63.39;99671.41;104999;1273;75565;-24
2022/10/05 09:13:23;;;;;;;3.50;1.00;;;;;;;13.71;61.85;99674.31;104281;1282;62821;-24
2022/10/05 09:16:02;;;;;;;2.50;0.90;;;;;;;14.13;61.42;99667.73;104660;1273;61774;-23
2022/10/05 09:18:51;;;;;;;1.70;0.70;;;;;;;14.40;60.79;99672.73;104631;1274;76538;-23
2022/10/05 09:22:01;;;;;;;4.10;1.00;;;;;;;14.68;58.67;99669.78;104629;1273;77391;-23
2022/10/05 09:25:00;;;;;;;3.30;0.90;;;;;;;14.90;57.87;99658.65;104164;1273;73674;-24
2022/10/05 09:27:35;;;;;;;2.00;0.70;;;;;;;14.71;56.98;99660.49;104540;1273;63539;-23
2022/10/05 09:30:18;;;;;;;1.40;1.00;;;;;;;14.38;57.97;99656.49;104701;1273;63326;-23
2022/10/05 09:33:06;;;;;;;1.60;0.70;;;;;;;14.33;58.31;99658.35;104540;1273;76511;-23
2022/10/05 09:36:03;;;;;;;1.30;0.60;;;;;;;14.10;59.17;99664.31;104714;1274;76919;-23
2022/10/05 09:39:09;;;;;;;1.40;0.60;;;;;;;14.26;57.90;99654.08;104614;1274;74068;-23
2022/10/05 09:42:14;;;;;;;3.90;0.80;;;;;;;14.02;58.82;99655.41;104650;1273;63326;-24
2022/10/05 09:45:00;;;;;;;4.60;1.00;;;;;;;13.79;57.76;99655.67;104650;1273;61756;-23
2022/10/05 09:47:58;;;;;;;1.10;0.70;;;;;;;14.34;58.08;99658.77;104675;1273;76661;-24
2022/10/05 09:50:47;;;;;;;0.50;0.50;;;;;;;14.51;56.72;99650.81;104702;1273;75692;-24
2022/10/05 09:53:39;;;;;;;1.10;0.70;;;;;;;14.32;57.20;99648.70;104628;1273;74615;-24
2022/10/05 09:56:19;;;;;;;2.90;0.70;;;;;;;14.52;57.65;99657.19;104706;1273;61142;-24
2022/10/05 09:59:15;;;;;;;2.10;0.80;;;;;;;14.48;56.74;99653.20;104576;1276;62825;-24
2022/10/05 10:01:56;;;;;;;1.50;0.80;;;;;;;14.24;58.43;99657.19;104721;1273;75466;-24
2022/10/05 10:05:04;;;;;;;0.80;0.50;;;;;;;14.43;57.75;99662.21;104577;1273;77021;-24
2022/10/05 10:07:47;;;;;;;2.90;0.90;;;;;;;14.34;57.39;99666.11;104786;1274;75428;-24
2022/10/05 10:10:14;;;;;;;2.90;0.80;;;;;;;14.19;57.27;99670.75;104565;1273;61726;-24
2022/10/05 10:12:44;;;;;;;2.40;1.90;;;;;;;14.20;57.51;99674.52;105009;1273;61826;-24
2022/10/05 10:15:27;;;;;;;1.20;0.70;;;;;;;14.25;56.99;99672.16;104769;1273;76872;-24
2022/10/05 10:18:10;;;;;;;1.60;0.70;;;;;;;14.16;56.56;99679.88;104632;1273;77076;-24
2022/10/05 10:20:51;;;;;;;2.70;0.90;;;;;;;14.25;57.67;99676.73;104614;1275;75424;-24
2022/10/05 10:23:25;;;;;;;1.20;0.80;;;;;;;14.19;58.04;99676.52;104636;1274;63955;-24
2022/10/05 10:26:02;;;;;;;;;;;;;;;13.99;56.91;99677.86;105005;1273;63050;-23
2022/10/05 10:28:53;;;;;;;1.00;0.70;;;;;;;14.11;56.44;99672.64;104731;1276;76337;-23
2022/10/05 10:32:11;;;;;;;1.30;0.70;;;;;;;14.22;57.53;99675.37;104571;1273;76733;-23
2022/10/05 10:34:41;;;;;;;1.60;0.90;;;;;;;14.95;56.79;99669.38;104579;1273;75525;-23
2022/10/05 10:37:33;;;;;;;1.70;1.20;;;;;;;14.93;55.81;99669.20;104548;1275;61975;-23
2022/10/05 10:40:19;;;;;;;2.00;1.10;;;;;;;15.27;55.23;99661.29;104582;1274;61744;-23
2022/10/05 10:43:05;;;;;;;1.50;1.10;;;;;;;15.14;56.53;99661.37;104707;1273;75516;-23
2022/10/05 10:45:52;;;;;;;1.60;0.90;;;;;;;15.03;55.36;99656.27;104581;1275;75688;-23
2022/10/05 10:48:28;;;;;;;4.30;0.80;;;;;;;14.91;55.15;99655.88;104655;1273;73636;-23
2022/10/05 10:51:04;;;;;;;2.20;0.80;;;;;;;14.78;55.90;99652.90;104611;1274;63005;-23
2022/10/05 10:53:56;;;;;;;2.60;0.80;;;;;;;14.99;56.87;99655.16;104630;1273;61970;-24
2022/10/05 10:56:45;;;;;;;1.40;1.10;;;;;;;15.27;55.83;99649.00;104723;1273;76729;-25
2022/10/05 10:59:25;;;;;;;2.10;1.10;;;;;;;15.29;56.44;99648.61;105016;1273;76944;-25
2022/10/05 11:02:18;;;;;;;2.30;1.10;;;;;;;15.76;56.04;99652.52;104727;1274;75306;-24
2022/10/05 11:04:55;;;;;;;1.70;1.00;;;;;;;16.12;55.00;99649.20;104714;1274;63425;-25
2022/10/05 11:07:24;;;;;;;2.10;0.90;;;;;;;16.07;54.67;99644.08;104626;1274;61268;-25
2022/10/05 11:10:11;;;;;;;2.40;1.00;;;;;;;15.95;54.32;99648.02;104634;1275;76644;-25
2022/10/05 11:12:53;;;;;;;1.30;0.90;;;;;;;15.74;54.82;99643.80;104846;1273;76918;-24
2022/10/05 11:15:48;;;;;;;3.20;1.20;;;;;;;15.37;55.32;99641.13;104582;1273;74462;-25
2022/10/05 11:18:19;;;;;;;1.80;0.80;;;;;;;15.19;55.12;99640.13;104546;1274;62877;-25
2022/10/05 11:21:10;;;;;;;2.40;1.00;;;;;;;15.33;55.10;99641.79;104483;1276;63748;-25
2022/10/05 11:23:47;;;;;;;1.90;0.90;;;;;;;15.35;56.15;99651.77;104565;1273;75428;-25
2022/10/05 11:26:35;;;;;;;2.20;1.30;;;;;;;15.54;55.90;99647.94;104704;1274;74865;-25
2022/10/05 11:29:40;;;;;;;1.80;1.00;;;;;;;15.78;55.33;99645.90;104594;1274;75502;-25
2022/10/05 11:32:33;;;;;;;2.90;1.40;;;;;;;15.80;55.34;99643.58;104682;1274;62805;-25
2022/10/05 11:35:19;;;;;;;3.00;1.00;;;;;;;15.58;54.57;99637.05;104316;1276;62792;-23
2022/10/05 11:38:11;;;;;;;1.60;1.10;;;;;;;15.43;55.02;99642.81;104824;1274;76686;-23
2022/10/05 11:41:01;;;;;;;2.20;1.20;;;;;;;15.34;55.73;99642.95;104572;1274;75274;-23
2022/10/05 11:43:36;;;;;;;5.20;1.10;;;;;;;15.22;55.24;99641.05;104633;1273;74285;-23
2022/10/05 11:46:07;;;;;;;2.30;1.00;;;;;;;15.08;55.90;99639.20;104497;1274;61974;-23
2022/10/05 11:48:50;;;;;;;2.30;1.20;;;;;;;15.04;56.59;99645.46;104342;1276;62048;-23
2022/10/05 11:51:21;;;;;;;4.80;1.10;;;;;;;14.98;56.75;99648.30;104574;1274;75063;-23
2022/10/05 11:54:17;;;;;;;3.90;1.30;;;;;;;14.70;57.10;99642.52;104731;1274;77017;-24
2022/10/05 11:57:06;;;;;;;2.20;1.50;;;;;;;14.55;56.79;99644.20;104584;1274;75427;-25
2022/10/05 11:59:40;;;;;;;2.60;1.50;;;;;;;14.52;56.99;99654.12;104432;1275;61161;-25
2022/10/05 12:02:27;;;;;;;;;;;;;;;14.53;56.01;99650.34;104501;1274;63829;-25
2022/10/05 12:05:10;;;;;;;5.80;1.60;;;;;;;14.52;56.10;99657.61;104360;1275;75538;-25
2022/10/05 12:08:01;;;;;;;2.40;1.40;;;;;;;14.61;57.21;99664.86;104572;1274;77050;-24
2022/10/05 12:11:07;;;;;;;2.20;1.20;;;;;;;14.56;56.73;99659.64;104568;1274;73453;-25
2022/10/05 12:13:39;;;;;;;4.50;1.50;;;;;;;14.65;56.19;99655.77;104869;1274;62048;-25
2022/10/05 12:16:21;;;;;;;3.20;1.30;;;;;;;14.68;56.90;99663.20;104746;1275;62151;-25
2022/10/05 12:19:17;;;;;;;5.70;1.80;;;;;;;14.55;57.20;99662.55;104787;1274;77087;-25
2022/10/05 12:22:02;;;;;;;2.30;1.60;;;;;;;14.52;57.70;99671.76;104748;1274;76102;-23
2022/10/05 12:24:36;;;;;;;5.20;1.80;;;;;;;14.42;57.75;99670.16;104764;1274;75216;-23
2022/10/05 12:27:23;;;;;;;2.20;1.50;;;;;;;14.33;58.26;99676.02;104731;1274;61712;-23
2022/10/05 12:29:56;;;;;;;2.20;1.70;;;;;;;14.34;58.55;99676.27;104799;1274;61615;-24
2022/10/05 12:32:59;;;;;;;3.30;1.70;;;;;;;14.35;58.42;99679.63;104625;1274;76860;-23
2022/10/05 12:35:44;;;;;;;3.30;1.50;;;;;;;14.39;58.56;99679.31;104662;1274;76067;-23
2022/10/05 12:38:39;;;;;;;2.60;1.50;;;;;;;14.38;58.67;99681.65;104531;1274;75485;-24
2022/10/05 12:41:13;;;;;;;3.10;1.70;;;;;;;14.46;59.87;99690.30;104497;1274;61868;-23
2022/10/05 12:43:49;;;;;;;3.70;1.80;;;;;;;14.44;58.90;99688.12;104534;1274;62010;-23
2022/10/05 12:46:48;;;;;;;5.10;1.90;;;;;;;14.39;58.72;99685.27;104468;1275;76576;-23
2022/10/05 12:49:27;;;;;;;4.30;1.70;;;;;;;14.34;59.16;99686.60;104713;1274;77026;-23
2022/10/05 12:52:03;;;;;;;4.90;2.20;;;;;;;14.30;58.69;99683.02;104646;1274;74502;-24